Espace membre
Imprimable
Brugge, 12/05/2019, BEL - Dwars door Brugge
Liste des rapports > 15km - Classement
Recherche: Page: 1 2 [3] 4 5
2486 Entrées
 
Les réclamations ne sont plus acceptées, les résultats sont considérés comme définitifs.
Catégorie
PosNrNomAgeIOCEquipeTempsTkmMoy.RangNomLocalité
1001.3050VERMEULEN Nico37BEL1:16:235:06 11.78136M35ASSEBROEK
1002.3303VAN LOO Filip37BEL1:16:235:06 11.78137M35SINT-MICHIELS
1003.3030DECROCK Angelo23BEL1:16:245:06 11.78416SEHLOPPEM
1004.1098CRUL Frederik36BEL1:16:245:06 11.78138M35RUISELEDE
1005.1671VANDEWALLE Peter50BEL1:16:255:06 11.7865M50KORTEMARK
1006.2160CORTY Jerome27BEL1:16:265:06 11.78417SEHASSEBROEK
1007.1434BELPAEME Mathias32BEL1:16:265:06 11.78418SEHLICHTERVELDE
1008.1342VAN KERCKHOVE Tim34BEL1:16:275:06 11.77419SEHLOKEREN
1009.1457BOURGEOIS Ludovic23BEL1:16:275:06 11.77420SEHBRUGGE
1010.3775LAMBERSY Bjorn29BEL1:16:275:06 11.77421SEHBRUGGE
1011.3773VAN POUCKE Bjorn42BEL1:16:285:06 11.77114M40ICHTEGEM
1012.3160PYFFEROEN Matthias26BEL1:16:285:06 11.77422SEHRUDDERVOORDE
1013.2050HOSTE Louis25BEL1:16:285:06 11.77423SEHAARTRIJKE
1014.765COVEMAECKER Arthur17BEL1:16:315:07 11.76424SEH
1015.1670PUPE Maxim Gaston28BEL1:16:315:07 11.76425SEHBRUGGE
1016.528FRÁGUAS Roberto30PRTAZ SINT-LUCAS B1:16:315:07 11.76426SEHASSEBROEK
1017.759DERVEAUX Vincent25BELJORIS IDE1:16:315:07 11.76427SEHMOORSLEDE
1018.2051COENE Chris51BELARTES1:16:335:07 11.7666M50ZEEBRUGGE
1019.1251DE ROO Daan34BEL1:16:345:07 11.75428SEHASSEBROEK
1020.3893LUST Johan63BEL1:16:365:07 11.7516M60OOSTKAMP
1021.1975GHESQUIERE Maarten27BEL1:16:375:07 11.75429SEHIEPER
1022.372VANDENABEELE Niek32BEL1:16:375:07 11.75430SEHKLERKEN
1023.1972RYCKAERT Emeric24BEL1:16:385:07 11.75431SEHBRUGGE
1024.668DAENINCK Bjorn32BELCURANDO1:16:385:07 11.74432SEHSIJSELE
1025.670FCOCHUYT Steffie32BELCURANDO1:16:395:07 11.7443SEFSIJSELE
1026.3968VANDECAVEYE Jeffrey30BEL1:16:395:07 11.74433SEHLICHTERVELDE
1027.3609BRUSSELLE Steven42BEL1:16:395:07 11.74115M40LINDEN
1028.2154DOLFEN Dylan27BEL1:16:415:07 11.74434SEHBEAUVOORDE
1029.593CORVERS Kurt45BELBOYDENS ENGINEE1:16:415:07 11.7491M45ZEDELGEM
1030.366RYCKAERT Dirk53BEL1:16:415:07 11.7467M50BRUGGE
1031.3830FHUYGHE Evelien37BEL1:16:425:07 11.7424F35VLETEREN
1031.3154FLOENDERS Leen56BELRUNNING AND MOR1:16:425:07 11.745F55SINT-ANDRIES
1033.825QUARTIER Lander35BEL1:16:425:07 11.73139M35MEULEBEKE
1034.3372VANKERKHOVEN Charles22BEL1:16:435:07 11.73435SEHWINGENE
1035.1605DECOORNE Felix46BEL1:16:445:07 11.7392M45BEERNEM
1036.796FGHESQUIÈRE Margot16BEL1:16:465:08 11.7244SEF
1037.906VANCRAEYVELD Christophe47BEL1:16:475:08 11.7293M45WINGENE
1038.1055HELEWAUT Aag32BEL1:16:495:08 11.72436SEHGENT
1039.3238PATTYN Simon27BEL1:16:525:08 11.71437SEHGENT
1040.260PAUWELS Brecht30BEL1:16:535:08 11.71438SEHNAZARETH
1041.1196SCHOONJANS Jozef68BEL1:16:545:08 11.707M65BAARDEGEM
1042.1358DEBACKER Cedric26BEL1:16:555:08 11.70439SEHOOSTENDE
1043.252'T JAMPENS Maxim19BEL1:16:565:08 11.70440SEHSINT-MICHIELS
1044.3391FSTEVENS Sara17BEL1:16:565:08 11.7045SEFBEVEREN ROESELARE
1045.1987MONBALLIU Jeffrey43BEL1:16:565:08 11.70116M40SINT KRUIS
1046.3307VAN MULLEM Willem33BEL1:16:575:08 11.70441SEHBRUSSEL
1047.1066TANGHE Geert59BEL1:16:595:08 11.6946M55EDEGEM
1048.868DESMAELE Arnaud19BEL1:16:595:08 11.69442SEHBRUGGE
1049.1349FVERMEESCH Lieveke54BEL1:17:015:09 11.694F50ZWEVEGEM
1050.3403VERVALCKE Gaëtan41BEL1:17:015:09 11.69117M40MARKE
1051.3604HITIER Carlos33BEL1:17:025:09 11.69443SEHOOSTKAMP
1052.589VANSTEENLANDT Simon28BELBOYDENS ENGINEE1:17:025:09 11.68444SEHZEDELGEM
1053.3585QUINTENS Luc61BEL1:17:025:09 11.6817M60DAMME - HOEKE
1054.2121HEINTZ Alexander25BEL1:17:035:09 11.68445SEHBRUGGE
1055.833VERMEULEN Sander31BEL1:17:045:09 11.68446SEHDRONGEN
1056.3637FROTSAERT Katrien44BEL1:17:055:09 11.6811F40SINT-MICHIELS
1057.3838LEPLAE Gertjan29BEL1:17:055:09 11.68447SEHOOSTKAMP
1058.3400DEJONGHE Dieter42BEL1:17:075:09 11.67118M40MARKE
1059.1286DESMET Kevin36BEL1:17:085:09 11.67140M35SINT ANDRIES BRUGGE
1060.3672PIERS Bart39BEL1:17:095:09 11.67141M35OEDELEM
1061.3597DIERICKX Kris48BEL1:17:115:09 11.6694M45
1062.1245BEERNAERT Yves60DEU1:17:145:09 11.6618M60BRUGGE
1063.801FDELBARRE Zjoske14BEL1:17:145:09 11.6546SEF
1064.3429DEJAEGERE Jean-Claude59BEL1:17:155:09 11.6547M55KORTRIJK
1065.1340DUYNSLAEGER Marc58BEL1:17:185:10 11.6548M55INGELMUNSTER
1066.1365DE PAUW Steven39BEL1:17:185:10 11.65142M35ADEGEM
1067.3170NESLANY Jean61BEL1:17:205:10 11.6419M60GENT
1068.3210VANHULLE Franky51BEL1:17:205:10 11.6468M50DAMME-VIVENKAPELLE
1069.1009AMARAL Daniel25PRT1:17:205:10 11.64448SEHETTERBEEK
1070.3176VAN DER MIJNSBRUGGE Krist63BEL1:17:225:10 11.6320M60ZANDBERGEN
1071.1691VALLAEY Matthias Oscar38BEL1:17:235:10 11.63143M35BRUGGE
1072.1692BEKEMANS Thomas38BEL1:17:245:10 11.63144M35ASSEBROEK
1073.3763COEN Dominique53BEL1:17:245:10 11.6369M50OUDENBURG
1074.1719FVANHOUTTE Charlotte34BEL1:17:305:10 11.6147SEFHANDZAME
1075.786FJOESTEN Valerie25NLDASICS FRONTRUNN1:17:315:11 11.6148SEFAMERSFOORT
1076.3599FNOTE Leen38BEL1:17:325:11 11.6125F35SINT-MICHIELS
1077.4000FDECLERCK Els45BEL1:17:335:11 11.6113F45BEERNEM
1078.3323KINABLE Koen53BEL1:17:355:11 11.6070M50WENDUINE
1079.257FTALLOEN Jolien24BEL1:17:365:11 11.6049SEFOOSTKAMP
1080.3523SALEMBIER Sven38BEL1:17:365:11 11.60145M35RUDDERVOORDE
1081.3522VAN ACKER Toon62BEL1:17:375:11 11.6021M608020 - RUDDERVOORDE
1082.1677FBABETTE Vandendorpe30BEL1:17:375:11 11.6050SEFBRUGGE
1083.1063BULCKE Dries31BEL1:17:405:11 11.59449SEHANTWERPEN
1084.820BONNY Frederik37BEL1:17:415:11 11.59146M35KOEKELARE
1085.654DELODDER Jelle18BEL1:17:425:11 11.59450SEH
1086.1051ERBO Dieter27BELLOOPTEAM SNUFFE1:17:425:11 11.58451SEHZWANKENDAMME
1087.839VANROYE Gilles24BEL1:17:425:11 11.58452SEHASSEBROEK-BRUGGE
1088.3727FKNUDDE Tamara34BEL1:17:445:11 11.5851SEFKOOLKERKE
1089.1359FVANHAELEWIJN Joke37BEL1:17:445:11 11.5826F35BRUGGE
1090.660VANBEYLEN Xander15BEL1:17:455:11 11.58453SEH
1091.3299DE LANDSHEER Wim49BEL1:17:455:11 11.5895M45RESSEGEM
1092.3801GRUWEZ Wim50BEL1:17:475:12 11.5771M50LOPPEM
1093.521VAN DAMME Willem24BELAZ SINT-LUCAS B1:17:485:12 11.57454SEHOOSTKAMP
1094.1054HELEWAUT Eric62BEL1:17:485:12 11.5722M60SINT-KRUIS
1095.3970FVAN HAECKE Katrien52BEL1:17:495:12 11.575F50MIDDELBURG
1096.704VAN BREUSEGEM Paul62BELJC ERWETEGEM1:17:505:12 11.5623M60HERZELE
1097.601BASSOUNE Mo50BELDUPONT1:17:505:12 11.5672M50OOSTENDE
1098.1274BOVENISTIER Nick31BEL1:17:515:12 11.56455SEHBREDENE
1099.840FSCHALKEN Emmeke22NLD1:17:535:12 11.5652SEFMAASTRICHT
1100.1064VIAENE Thomas31BEL1:17:535:12 11.56456SEHBEIGEM
1101.1716ACKAERT Bart Jozef39BEL1:17:535:12 11.56147M35BRUGGE
1102.1310DE BRUYCKER Gerd48BEL1:17:555:12 11.5596M45VELDEGEM
1103.1762DEQUEKER Hendrik18BEL1:17:575:12 11.55457SEHBRUGGE
1104.1284VERLEYE Arend14BEL1:17:575:12 11.55458SEHASSEBROEK (BRUGGE)
1105.1229TIMMERMAN Robert35NLD1:17:585:12 11.55148M35GRONINGEN
1106.828CORENS Tom38BEL1:17:585:12 11.54149M35BRUGGE
1107.3451FCARTRYSSE Sophie51BEL1:17:595:12 11.546F50SINT-ANDRIES
1108.1097FEYSSEN Leen58BEL1:17:595:12 11.546F55EDEGEM
1109.890LEROY Jan49BEL1:18:005:12 11.5497M45DAMME
1110.881VANHEDE Filip55BEL1:18:015:13 11.5449M55ZWEVEGEM
1111.1598LOMBAERT Dirk60BEL1:18:045:13 11.5324M60BRUGGE
1112.709DE MANGELEER Gert42BELLESS1:18:055:13 11.53119M40BRUGGE
1113.655PAUWELS Douwe16BEL1:18:055:13 11.53459SEH
1114.3454VANSIELEGHEM Lander31BEL1:18:055:13 11.53460SEHBREDENE
1115.738PLUYS Steve39BELDB CARGO BELGIË1:18:065:13 11.53150M35MECHELEN
1116.3096FVAN NIEUWENHUYSE Elke31BEL1:18:065:13 11.5353SEFBREDENE
1117.659MUS Dieter18BEL1:18:065:13 11.53461SEH
1118.3985LAURENS Verschave32BEL1:18:075:13 11.52462SEHGENT
1119.3563CAESTECKER Laurens44BEL1:18:085:13 11.52120M40BRUGGE
1120.1103GALLE Bert27BEL1:18:095:13 11.52463SEHZEDELGEM
1121.1050CORTEN Jean-Louis24BELLOOPTEAM SNUFFE1:18:115:13 11.51464SEHSINT-ANDRIES
1122.1711BLONTROCK Nick André25BEL1:18:115:13 11.51465SEHBRUGGE
1123.702DECLERCQ Luc55BELJC ERWETEGEM1:18:135:13 11.5150M55ZOTTEGEM
1124.3109MARGOT Jan64BEL1:18:195:14 11.4925M60DILBEEK
1125.2053FLOOTENS An32BEL1:18:215:14 11.4954SEFOOSTENDE
1126.245FVERCRUYSSE Virginie32BEL1:18:235:14 11.4855SEFVLISSEGEM
1127.3333LESAFFRE Frederik42BEL1:18:235:14 11.48121M40SINT-KRUIS
1128.3063LORENZO Ravaut22BEL1:18:255:14 11.48466SEHWERVIK
1129.893DE RYBEL Jan47BEL1:18:255:14 11.4898M45BRUGGE
1130.393OOST Frederik45BEL1:18:275:14 11.4799M45TORHOUT
1131.3117FDAENE Ulriche45BEL1:18:285:14 11.4714F45SINT-KRUIS
1132.797FVANOVERSCHELDE Anousjka44BEL1:18:295:14 11.4712F40
1133.1760DUDAL Marc18BEL1:18:305:14 11.47467SEHBREDENE
1134.1758GOVAERT Stefaan Silvain48BEL1:18:305:14 11.47100M45KNOKKE-HEIST
1135.1710CANT Alrxander18BEL1:18:305:14 11.47468SEHGENT
1136.3336VAN DE VELDE Koen50BEL1:18:315:15 11.4673M50BRUGGE
1137.952DE SOETE Jonas30BEL1:18:315:15 11.46469SEHSINT-ANDRIES
1138.3532FYSENBRANDT Katrijn28BEL1:18:325:15 11.4656SEFOOSTENDE
1139.1706DE SMET Dries36BEL1:18:325:15 11.46151M35HEUSDEN
1140.1233FBLANCKAERT Julie29BEL1:18:325:15 11.4657SEFSINT-KRUIS
1141.1790VENS Hans Charles62BEL1:18:335:15 11.4626M60BRUGGE
1142.2038VANTHUYNE Kris53BEL1:18:335:15 11.4674M50ASSEBROEK
1143.2300FWILLAERT Yentl31BEL1:18:335:15 11.4658SEFLEKE
1144.1244FFERYN Ellen35BEL1:18:345:15 11.4627F35WESTKERKE
1145.263FLANNOYE Margot20BEL1:18:345:15 11.4659SEFLOPPEM
1146.3146DE VOGELAER Mathias33BEL1:18:345:15 11.46470SEHWAASMUNSTER
1147.703FVAN BREUSEGEM Nikita17BELJC ERWETEGEM1:18:365:15 11.4560SEFHERZELE
1148.3278FDEWULF VanessaBEL1:18:375:15 11.45-KORTEMARK
1149.3342VAN DEN BOSSCHE Dries22BEL1:18:405:15 11.44471SEHMALDEGEM
1150.1282FDE METTER Nele45BEL1:18:425:15 11.4415F45ASSEBROEK (BRUGGE)
1151.1143NEUTENS Edward14BEL1:18:435:15 11.43472SEHWEVELGEM
1152.1603SPEGELAERE Filip45BEL1:18:435:15 11.43101M45SINT MICHIELS
1153.1112HUYGHE Stijn44BEL1:18:445:15 11.43122M40BRUGGE
1154.1119FEMONTS-GAST Griet35BELRUNNING AND MOR1:18:455:15 11.4328F35BRUGGE
1155.3728CLAEYS Robby36BEL1:18:455:15 11.43152M35KOOLKERKE
1156.3093VAN WOENSEL David36BEL1:18:465:16 11.43153M35AALST
1157.3935VERMEERSCH Michel56BEL1:18:465:16 11.4351M55VELDEGEM
1158.1057VANLERSBERGHE Pieter44BELRUNNING AND MOR1:18:485:16 11.42123M40OOSTKAMP
1159.3875DEFRUYT Ronald71BEL1:18:495:16 11.425M70ZEDELGEM
1160.994FVANGEEL Mieke38BEL1:18:495:16 11.4229F35HASSELT
1161.3584FCOENS Anja44BEL1:18:505:16 11.4213F40OEDELEM
1162.3808PATRICK Gheysen66BEL1:18:515:16 11.428M65BRUGGE
1163.3080DETENDER Steven26BEL1:18:515:16 11.42473SEHZWIJNAARDE
1164.3081NAEYAERT Joren23BEL1:18:515:16 11.41474SEHASSEBROEK
1165.1122SCHOUTEERE Jonathan37BEL1:18:525:16 11.41154M35RUDDERVOORDE
1166.1350VANHEDE Dominique60BEL1:18:535:16 11.4127M60ZWEVEGEM
1167.674SIMOENS Bert39BELPATTYN IS RUNNI1:18:535:16 11.41155M35OESELGEM
1168.3624VAN DEYNZE Marc56BEL1:18:555:16 11.4152M55AALTER
1169.3215TALLOEN Bart44BEL1:18:555:16 11.41124M40OOSTKAMP
1170.1247VAN LAETHEM Kristof42BEL1:18:555:16 11.40125M40SINT MICHIELS
1171.3453VANDENBOSCH Sang Woo K.34BEL1:18:565:16 11.40475SEHBORGERHOUT
1172.1121DEKLERCK Jonas23BEL1:18:585:16 11.40476SEHASSEBROEK
1173.3447PICEU Kurt46BEL1:18:585:16 11.40102M45OOSTKAMP
1174.2066ROELS James44BEL1:19:015:17 11.39126M40BRUGGE
1175.1294LAMOTE Dany46BEL1:19:015:17 11.39103M45DUDZELE
1176.1636SWERTZ Adam27CAN1:19:025:17 11.39477SEHCALGARY
1177.1604DEMAREST Filip46BEL1:19:025:17 11.39104M45VARSENARE
1178.1285FVAN DEN BERGHE Sandra51BEL1:19:025:17 11.397F50BRUGGE
1179.280DE SOETE Marc56BEL1:19:055:17 11.3853M55DAMME
1180.3236MAEBE Rudy56BEL1:19:085:17 11.3754M55OOSTAKKER
1181.745CARNEY Anthony41BELCONCERTGEBOUW B1:19:085:17 11.37127M40BRUGGE
1182.1045HAECK Merijn44BEL1:19:105:17 11.37128M40WINGENE
1183.987JELLE Vanackere28BEL1:19:115:17 11.37478SEHBESELARE
1184.3915FCASIER Marijke60BEL1:19:115:17 11.374F60BRUGGE
1185.3459VANCRAEYENEST Pierrot63BEL1:19:125:17 11.3728M60LICHTERVELDE
1186.509AESAERT Alex58BELAZ SINT-LUCAS B1:19:155:17 11.3655M55OEDELEM
1187.707BUESELINCK Michiel25BELLESS1:19:165:18 11.36479SEHBRUGGE
1188.526NOLLET Kevin43BELAZ SINT-LUCAS B1:19:175:18 11.35129M40SINT-MICHIELS
1189.1655CUYPERS Glen37BEL1:19:175:18 11.35156M35NIJLEN
1190.1328DECOSTER Jos60BEL1:19:185:18 11.3529M60GENT
1191.374NEIRYNCK Jan50BEL1:19:185:18 11.3575M50AALTER
1192.975RAMANT Giel26BEL1:19:195:18 11.35480SEHMOORSLEDE
1193.3265PLOVIE Robbe18BEL1:19:195:18 11.35481SEHHAMME
1194.850NUTTIN Frederic41BEL1:19:195:18 11.35130M40WAREGEM
1195.1034JENS De Brabanter30BEL1:19:215:18 11.34482SEHDEURLE
1196.940COMPERNOLLE Peter47BELCNH INDUSTRIAL1:19:235:18 11.34105M45TORHOUT
1197.3800FDE CORTE Mirana31BEL1:19:235:18 11.3461SEFBRUGGE
1198.1304SLABBYNCK Jordan28BEL1:19:245:18 11.34483SEHBRUGGE
1199.3064NR 3064 XXX1:19:245:18 11.34-
1200.1205VOSSAERT Jef70BELRUNNING AND MOR1:19:245:18 11.346M70ASSEBROEK
1201.2101FVANDERYSE Leen57BEL1:19:255:18 11.337F55HOOGLEDE
1202.769PICEU Jarid15BEL1:19:255:18 11.33484SEH
1203.1221GIELENS Bas43BEL1:19:265:18 11.33131M40BRUGGE
1204.736VANDENBUSSCHE Ronny49DEUINGENIUM - WE T1:19:275:18 11.33106M45BRUGGE
1205.735FVANDENBUSSCHE Mathilde22BELINGENIUM - WE T1:19:285:18 11.3362SEFBRUGGE
1206.3295KIMPE Bart53BEL1:19:295:18 11.3276M50BRUGGE
1207.1257FMAERE Caroline39BEL1:19:295:18 11.3230F35BRUGGE (SINT-KRUIS)
1208.1637MEGANCK Mathias36BEL1:19:305:18 11.32157M35DAMME
1209.3128ROLLEZ Johan42BEL1:19:305:18 11.32132M40ZWEVEGEM
1210.3551VAN LAETHEM Christian59BEL1:19:305:18 11.3256M55BRUGGE
1211.3431FVANDERERVEN Katrien49BEL1:19:315:19 11.3216F45ANZEGEM
1212.862BLAUWET Erik67BEL1:19:325:19 11.329M65JABBEKE
1213.980ANSEEUW Brecht30BEL1:19:325:19 11.32485SEHASSEBROEK
1214.1713FDOBBELS Claudine Sonja46BEL1:19:335:19 11.3117F45BRUGGE
1215.1148FEYS Rony58BEL1:19:355:19 11.3157M55KLERKEN
1216.584BERNAERT Wout18BEL1:19:355:19 11.31486SEH
1217.3548HENCKENS Theo63BEL1:19:365:19 11.3130M60BRUGGE
1218.3144FVANHERCK Laurine28BEL1:19:375:19 11.3063SEFGENT
1219.1653FHOSTE Amber Lisa25BEL1:19:385:19 11.3064SEFBRUGGE
1220.2081TACK Karel57BEL1:19:385:19 11.3058M55OOSTKAMP
1221.3916FLAMBERT Silke36BEL1:19:385:19 11.3031F35OOSTKAMP
1222.3258DEPRINCE Dieter40BEL1:19:385:19 11.30133M40OUDENBURG
1223.3233MINNAERT Steven48BEL1:19:405:19 11.30107M45ZOTTEGEM
1224.3547FHENCKENS Hanne31BEL1:19:425:19 11.2965SEFASSEBROEK
1225.3963DAVELOOSE Dirk60BEL1:19:445:19 11.2931M60ASSEBROEK
1226.3789FCATTOOR Katrien47BEL1:19:455:19 11.2918F45BRUGGE
1227.262WULLEN Giacomo43BEL1:19:475:20 11.28134M40KOOLKERKE
1228.3419FMEIRE Martine46BELRUNNING AND MOR1:19:515:20 11.2719F45SIJSELE
1229.1169LEMANT Bart53BEL1:19:515:20 11.2777M50SINT ANDRIES
1230.634RYCX Mikaël50BEL1:19:525:20 11.2778M50
1231.642FSTAELENS Ella13BEL1:19:525:20 11.2766SEF
1232.563FIERS Luïs12BEL1:19:545:20 11.26487SEH
1233.3207FTILLEMAN Nele41BEL1:19:555:20 11.2614F40SINT-KRUIS
1234.1451FSYNNAEVE Sylvie51BEL1:19:565:20 11.268F50MIDDELKERKE
1235.537BRUYNOOGHE Stefaan49BELAZ SINT-LUCAS B1:19:585:20 11.26108M45OOSTKAMP
1236.1093FMERLIN Kika23BELLOOPTEAM SNUFFE1:20:005:20 11.2567SEFBRUGGE
1237.3921PARMENTIER Philip55BEL1:20:025:21 11.2559M55ROESELARE
1238.1778FCLINCKE Marieke Celine35BEL1:20:025:21 11.2532F35WINGENE
1239.3520FCOOLS Renate43BEL1:20:025:21 11.2515F40BRUGGE
1240.681VERFAILLIE Luc48BELPATTYN IS RUNNI1:20:025:21 11.25109M45BRUGGE SINT-ANDRIES
1241.3920HAGHEDOOREN Karel51BEL1:20:035:21 11.2579M50BRUGGE
1242.3608JENS Brusselle12BEL1:20:035:21 11.24488SEHBRUGGE
1243.1275PARISH Martin44GBR1:20:035:21 11.24135M40SHOEBURYNESS
1244.3649LOMBAERT Tom41BEL1:20:045:21 11.24136M40BRUGGE
1245.564FIERS David41BEL1:20:045:21 11.24137M40
1246.1318DEBOU Petro43BEL1:20:075:21 11.24138M40STEENKERKE
1247.647MORTIER Ole14BEL1:20:075:21 11.24489SEH
1248.3511CLEVERS Marnix56BEL1:20:085:21 11.2360M55SINT-MICHIELS
1249.3489MALFRERE Piet40BEL1:20:085:21 11.23139M40WEVELGEM
1250.240SANDERS Roel28BELARTES1:20:085:21 11.23490SEHZEEBRUGGE
1251.65SANDERS Henk58BELLIANTIS1:20:095:21 11.2361M55SINT-ANDRIES
1252.2102ALLY Dirk56BEL1:20:115:21 11.2362M55HOOGLEDE
1253.501LEMEY Filip55BELAZ SINT-LUCAS B1:20:115:21 11.2363M55WAREGEM
1254.1333FHAERENS Leen39BEL1:20:115:21 11.2333F35BRUGGE
1255.512VUATTIER Daniel35FRAAZ SINT-LUCAS B1:20:125:21 11.22158M35BRUGGE
1256.1705DE MAEGHT Loic18BEL1:20:155:21 11.22491SEHLOPPEM
1257.925FLANNOY Marie27BEL1:20:155:21 11.2168SEFKORTRIJK
1258.3792FHAJDUK Marzena46BEL1:20:165:22 11.2120F45SINT ANDRIES
1259.1777STRUBBE Maarten28BEL1:20:205:22 11.21492SEHOOSTKAMP
1260.1757SNEYAERT Emmanuel21BEL1:20:205:22 11.20493SEHOEDELEM
1261.1596VAN PUT Kenny27BEL1:20:205:22 11.20494SEHMORTSEL
1262.1360NOLF Stefaan47BEL1:20:215:22 11.20110M45WAREGEM
1263.999DE BRABANDER Jozef66BEL1:20:225:22 11.2010M65BRUGGE
1264.3809SIMOEN Luc63BEL1:20:225:22 11.2032M60GISTEL
1265.275VINCENT Mathieu27BEL1:20:245:22 11.20495SEHZOTTEGEM
1266.2098VAN DAELE Samuel31BEL1:20:245:22 11.20496SEHGENT
1267.3788GEVAERT Kris46BEL1:20:245:22 11.20111M45BRUGGE
1268.996DESEURE Wim47BEL1:20:265:22 11.19112M45DAMME
1269.2029FERKET Jordy26BEL1:20:265:22 11.19497SEHDE KLINGE
1270.326MOERMAN Luc55BELEAW_ING1:20:265:22 11.1964M55VARSENARE
1271.630FJONKHEERE Adelinde49BELDE GASTRONOMISC1:20:275:22 11.1921F45SINT_ANDRIES
1272.3897ROELS Marc50BEL1:20:305:22 11.1880M50ASSEBROEK
1273.3602FVAN DE VOORDE Evelyn46BEL1:20:305:22 11.1822F45ASSEBROEK
1274.649POLLART Gilles13BEL1:20:315:23 11.18498SEH
1275.1606FDEWEERDT Tine49BEL1:20:315:23 11.1823F45BRUGGE
1276.335GEERNAERT Lawrence32BEL1:20:315:23 11.18499SEHGENT
1277.872BEAUSAERT Danny37BEL1:20:325:23 11.18159M35KNOKKE
1278.3291KETELS Arne22BEL1:20:325:23 11.18500SEHSNELLEGEM
1279.3028VAN DE VANNET Viktor24BEL1:20:345:23 11.17501SEHSINT-ANDRIES
1280.3092VAN WOENSEL Klaas34BEL1:20:345:23 11.17502SEHAALST
1281.535PATTYN Frederik35BELAZ SINT-LUCAS B1:20:345:23 11.17160M35ASSEBROEK
1282.722FKERCKHOVE Dany69BELC-RUNNERS1:20:375:23 11.161F65DE HAAN
1283.3223SCHAUTTEET Johan C.R.54BEL1:20:385:23 11.1681M50GROEDE
1284.3031PETEN Cédric46BEL1:20:385:23 11.16113M45ST KRUIS
1285.3815VANDEVELDE Pieter40BEL1:20:405:23 11.16140M40BRUGGE
1286.1617DE KEYSER David Maurits32BEL1:20:405:23 11.16503SEHLOKEREN
1287.758PLETS Steve40BELJORIS IDE1:20:405:23 11.16141M40SINT ANDRIES
1288.505FDESMET Lore29BELAZ SINT-LUCAS B1:20:415:23 11.1669SEFSINT-MICHIELS
1289.631D'HONDT Eddy63BELDE GASTRONOMISC1:20:425:23 11.1533M60SINT_ANDRIES
1290.3067VANDENBERGHE Filip44BEL1:20:435:23 11.15142M40ZARREN - KORTEMARK
1291.943EDWARDS Geoffrey60GBR1:20:445:23 11.1534M60BREDENE
1292.3693DE COENSEL Jan64BEL1:20:445:23 11.1535M608310
1293.3065MEULEWATER Dries33BEL1:20:455:23 11.15504SEHOOSTKAMP
1294.667FDERYCKE Els55BELCURANDO1:20:455:23 11.158F55LOPPEM
1295.1043FLARNOU Ilse27BEL1:20:465:24 11.1470SEFBEERNEM
1296.1728FPINTELON Katrien43BEL1:20:475:24 11.1416F40BELG JABBEKE
1297.3485CLAERBOUT Claude52BEL1:20:475:24 11.1482M50SINT-KRUIS
1298.2026FDE JONGHE Irena26BEL1:20:475:24 11.1471SEFGENT
1299.978DUVILLERS Julius23BEL1:20:485:24 11.14505SEHSINT-KRUIS
1300.568SNAUWAERT Armand17BEL1:20:485:24 11.14506SEH
1301.571MEERSMAN Jari17BEL1:20:485:24 11.14507SEH
1302.860LOOSE Mathias37BELNN1:20:495:24 11.14161M35SINT-AMANDSBERG
1303.701FDE PAUW Kathy38BELJC ERWETEGEM1:20:495:24 11.1434F35ZOTTEGEM
1304.3743DEWANDELEER Philip38BEL1:20:505:24 11.14162M35VILVOORDE
1305.3510FMERLEVEDE Mieke54BEL1:20:515:24 11.139F50OOSTKAMP
1306.822FBOONE Conny53BEL1:20:515:24 11.1310F50KNESSELARE
1307.1742VAN ONSEM Lukas13BEL1:20:515:24 11.13508SEHOOSTKAMP
1308.241FRAMON Thiara36BELCORMAFISK1:20:525:24 11.1335F35BRUGGE
1309.2075VERSCHUEREN David39BEL1:20:535:24 11.13163M35BUGGENHOUT
1310.135HAENTJENS Kris63BEL1:20:555:24 11.1236M60BERCHEM
1311.714DEPREITERE Maxime27BELLESS1:20:565:24 11.12509SEHBRUGGE
1312.1076FVANCAUWENBERGHE Phoebe26BEL1:20:575:24 11.1272SEFASPER
1313.3655FVAN QUAETHEM Joke27BEL1:20:575:24 11.1273SEFSINT-KRUIS
1314.1236FDE NOYETTE Eva26BEL1:21:005:24 11.1174SEFDEINZE
1315.886FT'JONCK Kirina22BEL1:21:005:24 11.1175SEFDIKSMUIDE
1316.3776STRUBBE Jasper14BEL1:21:015:25 11.11510SEHSINT-MICHIELS
1317.1171FVAN DE GEUCHTE Marjolein41BELRUNNING AND MOR1:21:015:25 11.1117F40MALDEGEM
1318.3259FDOBBELAERE Nathalie36BEL1:21:025:25 11.1136F35SIJSELE
1319.838FTIMMERMANS Annick46BEL1:21:025:25 11.1124F45KONTICH
1320.3317FORREZ Robin31BEL1:21:035:25 11.11511SEHELSENE
1321.3010VERCOUTER Michaël28BEL1:21:055:25 11.10512SEHSINT-JORIS
1322.841FDEKETELAERE Sofie30BEL1:21:055:25 11.1076SEFSINT MICHIELS BRUGGE
1323.3149HUYS Geert40BEL1:21:065:25 11.10143M40BRUGGE
1324.1794VAN POUCKE Philip Roger54BEL1:21:075:25 11.1083M50OOSTKAMP
1325.3764FBEUCKELS Annelies31BEL1:21:075:25 11.1077SEFROESELARE
1326.1035DE DECKER Koen33BEL1:21:105:25 11.09513SEHDEURLE
1327.752BRAECKEVELT Ignace39BELJORIS IDE1:21:105:25 11.09164M35WINGENE
1328.823FTHOON Anja45BEL1:21:115:25 11.0925F45OTTENBURG
1329.266FPIESSEN Kim35BEL1:21:115:25 11.0937F35LEDEBERG
1330.989BALCAEN Aaron28BEL1:21:115:25 11.09514SEHBOEZINGE
1331.1246MEPPELINK John53NLD1:21:125:25 11.0984M50WESTERBORK
1332.1281WARRINNIER Yves41BEL1:21:135:25 11.08144M40ASSEBROEK
1333.1973SMETS Stephane29BEL1:21:135:25 11.08515SEHBRUGGE
1334.1621FCLAEYS Vero49BEL1:21:145:25 11.0826F45SINT-ANDRIES
1335.2161D’HONT Matthias38BEL1:21:145:25 11.08165M35ASSEBROEK
1336.3676FLIN Danièle38BEL1:21:155:25 11.0838F35ASSEBROEK
1337.3794FSTEELANDT Cindy45BEL1:21:155:25 11.0827F45ZERKEGEM
1338.3455D'HONT Jurgen38BEL1:21:175:26 11.07166M35BRUGGE
1339.3871FRIEMAECKER Lieve65BEL1:21:175:26 11.072F65ASSEBROEK
1340.3442DE TROYER Wouter30BEL1:21:185:26 11.07516SEHNINOVE
1341.1080CAENPEEL Hans48BEL1:21:185:26 11.07114M45
1342.1337DEFOUR Danny53BEL1:21:185:26 11.0785M50KOKSIJDE
1343.1059DE BLOCK Kristof40BEL1:21:195:26 11.07145M40BRUGGE
1344.2291NR 2291 XXX1:21:195:26 11.07-
1345.3666VANDORPE Vincent43BEL1:21:205:26 11.07146M40SINT ANDRIES
1346.789FRINGOOT Inge29BELASICS FRONTRUNN1:21:205:26 11.0778SEFWOLVERTEM
1347.3999FBOUTTELGIER Caroline60BEL1:21:235:26 11.065F60DIKSMUIDE
1348.3441FVAN DEN HAUTE Ann44BEL1:21:235:26 11.0618F40NINOVE
1349.1428FONTEYNE Stefan48BEL1:21:235:26 11.06115M45KORTEMARK
1350.1203VERLEYE Patrick43BEL1:21:245:26 11.06147M40SINT-ANDRIES
1351.619DECLERCK Michiel32BELDE GASTRONOMISC1:21:265:26 11.05517SEHASSEBROEK
1352.3973MAENE Tim33BEL1:21:275:26 11.05518SEHBRUGGE
1353.618VANDOORNE Jules12BELKSVO U121:21:285:26 11.05519SEHSINT-MICHIELS BRUGGE
1354.617VANDOORNE Peter50BELKSVO U121:21:285:26 11.0586M50SINT-MICHIELS BRUGGE
1355.603NAEYAERT Johan54BELDUPONT1:21:285:26 11.0587M50ASSEBROEK
1356.1140FVAN COMPERNOLLE Cindy44BEL1:21:345:27 11.0419F40WAARDAMME
1357.3509VUYLSTEKE Philip51BEL1:21:345:27 11.0488M50ASSEBROEK
1358.541DE MEULENAERE Ian27BELAZ SINT-LUCAS B1:21:345:27 11.04520SEHBRUGGE
1359.1763STEELANDT Matthieu42BEL1:21:345:27 11.03148M40ZWALM
1360.2071ROOSE Steve46BEL1:21:355:27 11.03116M45BREDENE
1361.2076VANDEWEGHE Vincent35BEL1:21:365:27 11.03167M35BRUGGE
1362.3861BEL1:21:365:27 11.03-
1363.698VAN DRIESSCHE Nico49BELJC ERWETEGEM1:21:375:27 11.03117M45ZOTTEGEM
1364.938VAN HOUCKE Bart35BEL1:21:385:27 11.02168M35LANDEGEM
1365.1198FCARNEY Celine35BEL1:21:415:27 11.0239F35ZEDELGEM
1366.829ROELS Tom51BEL1:21:415:27 11.0289M50ANTWERPEN
1367.3803FVANDEPITTE Nele37BEL1:21:435:27 11.0140F35BRUGGE
1368.3343ISSELEE Andreas18BEL1:21:445:27 11.01521SEHASSEBROEK
1369.1264D'HAENE Yves44BEL1:21:455:27 11.01149M40KORTRIJK
1370.2067VERFAILLIE Arnaud29BEL1:21:475:28 11.01522SEHLOPPEM
1371.3594GHILLEBERT Patrick57BEL1:21:495:28 11.0065M55BRUGGE
1372.3703FBRABANT Julie29BEL1:21:495:28 11.0079SEFSINT-MICHIELS
1373.3759VAN EKERT Ludwig68BEL1:21:505:28 11.0011M65MOERZEKE
1374.1011FGOETHALS Sofie34BEL1:21:505:28 11.0080SEFDAMME
1375.3705BRABANT Michael33BEL1:21:505:28 11.00523SEHBRUGGE
1376.863FLEBBE Julie28BEL1:21:515:28 11.0081SEFBRUGGE
1377.3550FCARRIZO Iris28BEL1:21:515:28 11.0082SEFLEDEBERG
1378.1789FVINCKE Charlotte46BEL1:21:525:28 10.9928F45BRUGGE
1379.815CLEMENT Miguel26BEL1:21:525:28 10.99524SEHHAASDONK
1380.1189VANDE MERGEL Dries26BEL1:21:535:28 10.99525SEHASSENEDE
1381.1138CLAERHOUT Matthias24BEL1:21:545:28 10.99526SEHBRUGGE
1382.2094FDE ROO Kathy53BEL1:21:575:28 10.9811F50OOSTDUINKERKE
1383.1008FBOGAARD Natalie35BEL1:21:575:28 10.9841F35SIJSELE
1384.3635DHOEST Filip49BEL1:22:005:28 10.98118M45ST ANDRIES
1385.3633COLPAERT Pieter42BEL1:22:015:29 10.98150M40SINT-ANDRIES
1386.3228LELIAERT Stijn39BEL1:22:015:29 10.97169M35ASSEBROEK
1387.3571DUPREZ Christophe47BEL1:22:035:29 10.97119M45BRUGGE
1388.3098VANDERLINDE Hendrik41BEL1:22:035:29 10.97151M40ZERKEGEM
1389.519FSUPPLY Karen40BELAZ SINT-LUCAS B1:22:095:29 10.9620F40EEKLO
1390.276FBAES Katrien35BEL1:22:095:29 10.9642F35DENDERWINDEKE
1391.3779FVERLINDE Nathalie44BEL1:22:105:29 10.9621F40SINT-MICHIELS
1392.3919CASIER Gino50BEL1:22:115:29 10.9590M50LISSEWEGE
1393.1190VAN DEN BIGGELAAR Martijn28NLD1:22:115:29 10.95527SEHSINT-MICHIELS
1394.1049BOONE Yuri24BELLOOPTEAM SNUFFE1:22:115:29 10.95528SEHLISSEWEGE
1395.254LANSSENS Stefan58BEL1:22:145:29 10.9466M55OOSTKAMP
1396.3494FTRIOEN Sarith33BEL1:22:155:29 10.9483SEFSINT-ANDRIES
1397.1092PROVOOST Toby24BELLOOPTEAM SNUFFE1:22:165:30 10.94529SEHBRUGGE
1398.3723SANTENS Benny43BEL1:22:165:30 10.94152M40SINT-KRUIS
1399.94SCHOUTEN Michel51NLD1:22:165:30 10.9491M50GOUDA
1400.3647FRAMMELOO Lore28BEL1:22:185:30 10.9484SEFOOSTDUINKERKE
1401.846DHONT Steven43BEL1:22:205:30 10.93153M40ZEDELGEM
1402.3541FVERBEEKE Liesbeth31BEL1:22:205:30 10.9385SEFSINT-ANDRIES
1403.3071SCHEPMANS Ken41BEL1:22:245:30 10.92154M40BURST
1404.859BRAND Bas59NLD1:22:255:30 10.9267M55PHILIPPINE
1405.1650FIERS Bob Walter56BEL1:22:275:30 10.9268M55BOORTMEERBEEK
1406.888FKINTHAERT Hilde Annie52BEL1:22:285:30 10.9212F50BRUGGE
1407.3560VANTHOURNOUT Dieter36BEL1:22:305:30 10.91170M35ASSEBROEK
1408.1181DUJARDIN Dries27BELCNH INDUSTRIAL1:22:315:31 10.91530SEHKORTRIJK
1409.726DEBREE Dirk58BELC-RUNNERS1:22:325:31 10.9169M55DE HAAN
1410.3596VANHOUTTE Jan-Willem26BEL1:22:345:31 10.90531SEHVARSENARE
1411.959VANHOUTTE Simon28BEL1:22:355:31 10.90532SEHBRUGGE
1412.1607VERLEYE Guido Maria61BEL1:22:355:31 10.9037M60BRUGGE
1413.1978FVLIETINCK Tine39BEL1:22:375:31 10.9043F35BRUSSEL
1414.1695FVERVALLE Melanie Blanche45BEL1:22:375:31 10.8929F45ZEDELGEM
1415.995FTAFFE Chloé36BEL1:22:395:31 10.8944F35JABBEKE
1416.3929ILIANO Wim45BEL1:22:395:31 10.89120M45JABBEKE
1417.836FMEERT Vicky34BEL1:22:405:31 10.8986SEFBRUGGE
1418.960EECLOO Hans50BEL1:22:415:31 10.8992M50SINT ANDRIES
1419.1983BLOKLAND Arno57NLD1:22:415:31 10.8970M55LOVENDEGEM
1420.919FHOORELBEKE Kelly32BEL1:22:415:31 10.8887SEFBLANKENBERGE
1421.382FPOLLET Sofie46BEL1:22:435:31 10.8830F45ASSEBROEK
1422.699FMORRE Sonja58BELJC ERWETEGEM1:22:435:31 10.889F55ZOTTEGEM
1423.1346VOS Stijn37BEL1:22:445:31 10.88171M35SIJSELE
1424.1234FMATTHYS Lauren24BEL1:22:445:31 10.8888SEFZWIJNAARDE
1425.2028LE BACQ Steve49BEL1:22:455:31 10.88121M45AFFLIGEM
1426.1696FDE BRUYCKER Norah13BEL1:22:465:32 10.8789SEFZEDELGEM
1427.3274FVAN PUYMBROECK Ellemijn27BEL1:22:505:32 10.8790SEFVARSENARE
1428.3014FPIETERS Helena25BEL1:22:525:32 10.8691SEFBRUGGE
1429.1223VERMANDER Guido65BEL1:22:535:32 10.8612M65ASSEBROEK
1430.1610VANDENBERGHE Mathias Marcel32BEL1:22:535:32 10.86533SEHGENT
1431.3833DEVELTER Jan53BEL1:22:535:32 10.8693M50EEKLO
1432.2063STELLAMANS Tom49BEL1:22:535:32 10.86122M45OOSTKAMP
1433.3318DEVLIEGER Jan52BEL1:22:545:32 10.8694M50ASSEBROEK (BRUGGE)
1434.3116FVANDE WOESTYNE Ilse43BELRUNNING AND MOR1:22:585:32 10.8522F40BRUGGE
1435.3106FMERVILLIE Els41BEL1:22:585:32 10.8523F40OESELGEM
1436.2093FHERREBOUT Tine40BEL1:22:585:32 10.8524F40ZEDELGEM
1437.3347PEETERS Wout34BEL1:22:595:32 10.85534SEHHERENT
1438.1326VAN IMPE Bert34BEL1:23:015:33 10.84535SEHHOFSTADE
1439.3752FTANGHE Virginie47BEL1:23:035:33 10.8431F45ZEDELGEM
1440.1749WILLEMS Kevin Willem29BEL1:23:065:33 10.83536SEHBRUGGE
1441.720DECHERF Patrick55BELC-RUNNERS1:23:075:33 10.8371M55DE HAAN
1442.3012VAN DAMME Wannes24BEL1:23:075:33 10.83537SEHOOSTKAMP
1443.3713DE ZAEYER Marc18BEL1:23:085:33 10.83538SEH
1444.3464VAN WATERMEULEN Kjell27BEL1:23:095:33 10.82539SEHBRUGGE
1445.3224NR 3224 XXX1:23:095:33 10.82-
1446.3465WYSEUR Marc53BEL1:23:095:33 10.8295M50BRUGGE
1447.974CAES Roy26BEL1:23:115:33 10.82540SEHRUDDERVOORDE
1448.1439FVINCKIER Charlotte24BEL1:23:205:34 10.8092SEFZUIENKERKE
1449.573FDENOLF Marie25BEL1:23:235:34 10.8093SEF
1450.1145VANDE VELDE Luc62BEL1:23:245:34 10.7938M60STERREBEEK
1451.1685SERREYN Bart Maria49BEL1:23:255:34 10.79123M45JABBEKE
1452.963VONCK Lukas20BEL1:23:255:34 10.79541SEHBRUGGE
1453.2096DEWULF Filip51BEL1:23:265:34 10.7996M50SINT-KRUIS
1454.3329DE KETELAERE Bart40BEL1:23:265:34 10.79155M40LOPPEM
1455.3726FBOGAERTS Berlinda57BEL1:23:275:34 10.7910F55BRUGGE
1456.3642MEIRE Tom39BEL1:23:275:34 10.79172M35BRUGGE
1457.3648FMAGALI Van Landegem28BEL1:23:275:34 10.7994SEFROESELARE
1458.3490FDECEUNINCK Delphine43BEL1:23:295:34 10.7825F40GENT
1459.806VAN ISEGHEM Hannes32BELLIANTIS1:23:305:34 10.78542SEHASSEBROEK
1460.895HERMAN Vincent50BEL1:23:315:35 10.7897M50WIELSBEKE
1461.1006FDECOCK Sofie43BEL1:23:315:35 10.7826F40ASSEBROEK
1462.3182FHIMPE Emma25BEL1:23:335:35 10.7795SEFBRUGGE
1463.1767FLIESBETH Vandepitte39BEL1:23:345:35 10.7745F35OOSTENDE
1464.3826DIERENDONCK Harald56BEL1:23:345:35 10.7772M55BRUGGE
1465.988FSTEEN Luca15BEL1:23:355:35 10.7796SEFGENT
1466.538DAVID Karel27BELAZ SINT-LUCAS B1:23:365:35 10.77543SEHASSEBROEK
1467.754DELERUE Viktor25BELJORIS IDE1:23:365:35 10.77544SEHSTADEN
1468.3724FVERBURGH Delphine25BEL1:23:375:35 10.7697SEFSINT-ANDRIES
1469.3251FLEBACQ Anniek44BEL1:23:385:35 10.7627F40BLANKENBERGE
1470.991STEEN Bart45BEL1:23:385:35 10.76124M45GENT
1471.1241FANSEEUW Valerie50BEL1:23:395:35 10.7613F50TORHOUT
1472.1259FVANDAELE Sabine48BEL1:23:395:35 10.7632F45BRUGGE
1473.3710FVAN DAMME Kathleen46BEL1:23:415:35 10.7633F45VARSENARE
1474.1443PYCK Sven37BEL1:23:415:35 10.75173M35BRUGGE
1475.788PLOMPEN Wesley28NLDASICS FRONTRUNN1:23:435:35 10.75545SEHROTTERDAM
1476.1444GEYSEN Frederik38BEL1:23:435:35 10.75174M35BRUGGE
1477.3554FVANMARCKE Gwen54BEL1:23:445:35 10.7514F50BRUGGE
1478.3531SOETE Luc60BEL1:23:445:35 10.7539M60BRUGGE
1479.2083DE PUYSSELEIR Maxim24BEL1:23:455:35 10.75546SEHBRUGGE
1480.1736FROSSEEL Tamara Ivonne40BEL1:23:465:36 10.7528F40MIDDELKERKE
1481.1729LAPIERRE Marc Antoon62BEL1:23:475:36 10.7440M60BEERNEM
1482.3527VAN PARYS Dieter45BEL1:23:475:36 10.74125M45OOSTKAMP
1483.3528JAN Noteboom52BEL1:23:475:36 10.7498M50HERTSBERGE
1484.3148FBRASSART Liesbet34BEL1:23:475:36 10.7498SEFZOTTEGEM
1485.3147LAMON Lieven60BEL1:23:475:36 10.7441M60ZWALM
1486.3245CRAEYMEERSCH Stefaan44BEL1:23:475:36 10.74156M40LANGEMARK-POELKAPELLE
1487.753BOSSUYT Bernard53BELJORIS IDE1:23:485:36 10.7499M50GENT
1488.251MARECHAL Pieter37BEL1:23:495:36 10.74175M35BRUGGE
1489.915FCROQUETTE Veroniek47BEL1:23:505:36 10.7434F45BRUGGE
1490.3962FKERCKHOF Greet56BEL1:23:515:36 10.7411F55DUDZELE
1491.718NAEYAERT Peter59BELC-RUNNERS1:23:515:36 10.7373M55DE HAAN
1492.1193BECKERS Michiel31BEL1:23:515:36 10.73547SEHDE HAAN
1493.913FLIPPENS Adeline41BEL1:23:525:36 10.7329F40OOSTDUINKERKE
1494.1144NEUTENS Wim42BEL1:23:545:36 10.73157M40WEVELGEM
1495.3481FHERMY Berdien31BEL1:23:555:36 10.7399SEFSINT ANDRIES
1496.1735TOURLAMAIN Ronny50BEL1:23:555:36 10.73100M50MERELBEKE
1497.1726DE SMET Pieter-Jan25BEL1:23:565:36 10.72548SEHGENT
1498.3758FVAN EKERT Nele39BEL1:23:585:36 10.7246F35HAMME-ZOGGE
1499.2037DE SCHUTTER Jo51BEL1:23:585:36 10.72101M50BORNEM
1500.3981FKNOCKAERT Georgette54BEL1:23:595:36 10.7215F50OOSTKAMP
DNF: abandon; DSQ: disqualifié; Vitesse en km/h
Page: 1 2 [3] 4 5